createdAt,value
2022-10-14T00:01:24.015Z,22.40
2022-10-14T00:03:50.725Z,22.41
2022-10-14T00:06:19.546Z,22.41
2022-10-14T00:08:47.476Z,22.41
2022-10-14T00:11:16.108Z,22.43
2022-10-14T00:13:42.575Z,22.45
2022-10-14T00:16:18.649Z,22.42
2022-10-14T00:18:45.161Z,22.40
2022-10-14T00:21:11.618Z,22.42
2022-10-14T00:23:38.356Z,22.42
2022-10-14T00:26:05.291Z,22.41
2022-10-14T00:28:31.851Z,22.42
2022-10-14T00:30:59.646Z,22.41
2022-10-14T00:33:26.249Z,22.42
2022-10-14T00:36:04.586Z,22.42
2022-10-14T00:38:31.259Z,22.42
2022-10-14T00:40:57.907Z,22.42
2022-10-14T00:43:25.312Z,22.41
2022-10-14T00:45:51.781Z,22.40
2022-10-14T00:48:18.968Z,22.38
2022-10-14T00:50:46.575Z,22.36
2022-10-14T00:53:13.916Z,22.37
2022-10-14T00:55:41.079Z,22.35
2022-10-14T00:58:07.552Z,22.36
2022-10-14T01:00:34.104Z,22.36
2022-10-14T01:03:00.827Z,22.34
2022-10-14T01:05:31.743Z,22.32
2022-10-14T01:08:21.159Z,22.33
2022-10-14T01:10:53.563Z,22.32
2022-10-14T01:13:27.351Z,22.32
2022-10-14T01:15:59.516Z,22.32
2022-10-14T01:18:25.864Z,22.31
2022-10-14T01:21:00.758Z,22.31
2022-10-14T01:23:32.430Z,22.29
2022-10-14T01:26:20.765Z,22.30
2022-10-14T01:29:24.990Z,22.30
2022-10-14T01:31:58.156Z,22.33
2022-10-14T01:34:27.285Z,22.33
2022-10-14T01:36:59.277Z,22.34
2022-10-14T01:39:27.738Z,22.36
2022-10-14T01:42:11.645Z,22.38
2022-10-14T01:44:41.108Z,22.40
2022-10-14T01:47:07.597Z,22.39
2022-10-14T01:49:39.884Z,22.41
2022-10-14T01:52:10.696Z,22.42
2022-10-14T01:54:39.541Z,22.43
2022-10-14T01:57:08.311Z,22.43
2022-10-14T01:59:35.043Z,22.42
2022-10-14T02:02:01.586Z,22.40
2022-10-14T02:04:28.104Z,22.42
2022-10-14T02:07:05.941Z,22.41
2022-10-14T02:09:41.765Z,22.43
2022-10-14T02:12:29.631Z,22.42
2022-10-14T02:15:39.602Z,22.42
2022-10-14T02:18:06.808Z,22.41
2022-10-14T02:20:42.452Z,22.38
2022-10-14T02:23:13.308Z,22.37
2022-10-14T02:25:40.510Z,22.38
2022-10-14T02:28:08.176Z,22.37
2022-10-14T02:30:38.030Z,22.36
2022-10-14T02:33:04.734Z,22.35
2022-10-14T02:35:31.227Z,22.36
2022-10-14T02:37:57.900Z,22.33
2022-10-14T02:40:31.172Z,22.34
2022-10-14T02:42:57.618Z,22.34
2022-10-14T02:45:26.076Z,22.35
2022-10-14T02:47:53.001Z,22.36
2022-10-14T02:50:20.048Z,22.36
2022-10-14T02:52:46.682Z,22.36
2022-10-14T02:55:13.155Z,22.36
2022-10-14T02:57:39.615Z,22.36
2022-10-14T03:00:06.535Z,22.36
2022-10-14T03:02:32.996Z,22.33
2022-10-14T03:04:59.457Z,22.36
2022-10-14T03:07:26.000Z,22.35
2022-10-14T03:09:52.954Z,22.36
2022-10-14T03:12:19.917Z,22.35
2022-10-14T03:14:46.542Z,22.36
2022-10-14T03:17:13.046Z,22.35
2022-10-14T03:19:39.505Z,22.36
2022-10-14T03:22:05.957Z,22.36
2022-10-14T03:24:32.437Z,22.35
2022-10-14T03:26:58.913Z,22.35
2022-10-14T03:29:25.391Z,22.34
2022-10-14T03:31:51.885Z,22.35
2022-10-14T03:34:18.684Z,22.38
2022-10-14T03:36:45.151Z,22.36
2022-10-14T03:39:11.735Z,22.36
2022-10-14T03:41:38.219Z,22.37
2022-10-14T03:44:04.698Z,22.35
2022-10-14T03:46:31.449Z,22.35
2022-10-14T03:48:58.006Z,22.36
2022-10-14T03:51:24.720Z,22.37
2022-10-14T03:53:51.172Z,22.35
2022-10-14T03:56:17.648Z,22.35
2022-10-14T03:58:44.105Z,22.34
2022-10-14T04:01:10.580Z,22.34
2022-10-14T04:03:37.036Z,22.35
2022-10-14T04:06:03.598Z,22.32
2022-10-14T04:08:30.051Z,22.32
2022-10-14T04:10:56.826Z,22.31
2022-10-14T04:13:23.281Z,22.31
2022-10-14T04:15:49.839Z,22.27
2022-10-14T04:18:16.327Z,22.28
2022-10-14T04:20:42.789Z,22.28
2022-10-14T04:23:09.248Z,22.28
2022-10-14T04:25:38.244Z,22.27
2022-10-14T04:28:04.874Z,22.27
2022-10-14T04:30:31.323Z,22.26
2022-10-14T04:32:57.787Z,22.26
2022-10-14T04:35:24.248Z,22.23
2022-10-14T04:37:50.721Z,22.20
2022-10-14T04:40:17.268Z,22.14
2022-10-14T04:42:43.723Z,22.18
2022-10-14T04:45:10.459Z,22.17
2022-10-14T04:47:36.929Z,22.16
2022-10-14T04:50:03.488Z,22.15
2022-10-14T04:52:29.965Z,22.13
2022-10-14T04:54:56.422Z,22.12
2022-10-14T04:57:22.948Z,22.12
2022-10-14T04:59:49.429Z,22.11
2022-10-14T05:02:15.963Z,22.10
2022-10-14T05:04:42.473Z,22.11
2022-10-14T05:07:08.936Z,22.11
2022-10-14T05:09:35.421Z,22.12
2022-10-14T05:12:02.261Z,22.17
2022-10-14T05:14:29.558Z,22.21
2022-10-14T05:16:56.046Z,22.25
2022-10-14T05:19:22.533Z,22.25
2022-10-14T05:21:49.014Z,22.28
2022-10-14T05:24:15.506Z,22.31
2022-10-14T05:26:42.275Z,22.33
2022-10-14T05:29:10.424Z,22.36
2022-10-14T05:31:37.126Z,22.39
2022-10-14T05:34:03.663Z,22.40
2022-10-14T05:36:30.166Z,22.43
2022-10-14T05:38:58.711Z,22.42
2022-10-14T05:41:25.668Z,22.40
2022-10-14T05:43:52.118Z,22.40
2022-10-14T05:46:18.601Z,22.42
2022-10-14T05:48:45.059Z,22.41
2022-10-14T05:51:11.545Z,22.40
2022-10-14T05:53:39.865Z,22.41
2022-10-14T05:56:08.066Z,22.40
2022-10-14T05:58:34.666Z,22.39
2022-10-14T06:01:04.688Z,22.39
2022-10-14T06:03:31.191Z,22.38
2022-10-14T06:05:57.747Z,22.38
2022-10-14T06:08:24.776Z,22.35
2022-10-14T06:10:51.968Z,22.33
2022-10-14T06:13:18.690Z,22.34
2022-10-14T06:15:45.145Z,22.34
2022-10-14T06:18:11.626Z,22.33
2022-10-14T06:20:38.077Z,22.33
2022-10-14T06:23:04.601Z,22.31
2022-10-14T06:25:31.073Z,22.35
2022-10-14T06:28:04.764Z,22.38
2022-10-14T06:30:31.825Z,22.41
2022-10-14T06:32:58.352Z,22.45
2022-10-14T06:35:24.858Z,22.50
2022-10-14T06:37:51.459Z,22.51
2022-10-14T06:40:17.981Z,22.50
2022-10-14T06:42:44.544Z,22.49
2022-10-14T06:45:11.020Z,22.49
2022-10-14T06:47:37.625Z,22.50
2022-10-14T06:50:04.390Z,22.53
2022-10-14T06:52:30.909Z,22.55
2022-10-14T06:54:57.821Z,22.55
2022-10-14T06:57:24.287Z,22.56
2022-10-14T06:59:50.744Z,22.55
2022-10-14T07:02:17.217Z,22.56
2022-10-14T07:04:43.678Z,22.55
2022-10-14T07:07:10.159Z,22.50
2022-10-14T07:09:36.613Z,22.48
2022-10-14T07:12:03.157Z,22.45
2022-10-14T07:14:29.650Z,22.45
2022-10-14T07:16:56.375Z,22.43
2022-10-14T07:19:22.880Z,22.38
2022-10-14T07:21:49.439Z,22.36
2022-10-14T07:24:15.980Z,22.33
2022-10-14T07:26:42.479Z,22.36
2022-10-14T07:29:08.944Z,22.34
2022-10-14T07:31:35.582Z,22.36
2022-10-14T07:34:02.048Z,22.42
2022-10-14T07:36:28.520Z,22.35
2022-10-14T07:38:54.978Z,22.33
2022-10-14T07:41:23.063Z,22.35
2022-10-14T07:43:54.054Z,22.36
2022-10-14T07:46:29.203Z,22.34
2022-10-14T07:48:57.922Z,22.34
2022-10-14T07:51:25.117Z,22.34
2022-10-14T07:53:52.979Z,22.34
2022-10-14T07:56:20.629Z,22.32
2022-10-14T07:58:47.265Z,22.34
2022-10-14T08:01:15.488Z,22.34
2022-10-14T08:03:42.843Z,22.34
2022-10-14T08:06:09.392Z,22.34
2022-10-14T08:08:35.965Z,22.37
2022-10-14T08:11:10.799Z,22.39
2022-10-14T08:13:40.574Z,22.41
2022-10-14T08:16:17.921Z,22.42
2022-10-14T08:18:44.812Z,22.41
2022-10-14T08:21:11.364Z,22.42
2022-10-14T08:23:37.842Z,22.43
2022-10-14T08:26:04.485Z,22.42
2022-10-14T08:28:30.961Z,22.42
2022-10-14T08:30:57.440Z,22.41
2022-10-14T08:33:23.985Z,22.41
2022-10-14T08:35:53.955Z,22.42
2022-10-14T08:38:25.116Z,22.43
2022-10-14T08:41:27.049Z,22.43
2022-10-14T08:44:22.897Z,22.47
2022-10-14T08:46:56.630Z,22.48
2022-10-14T08:49:32.710Z,22.48
2022-10-14T08:52:08.386Z,22.45
2022-10-14T08:54:43.370Z,22.46
2022-10-14T08:57:16.588Z,22.47
2022-10-14T08:59:43.105Z,22.46
2022-10-14T09:02:21.033Z,22.47
2022-10-14T09:04:47.723Z,22.49
2022-10-14T09:07:16.933Z,22.51
2022-10-14T09:09:44.797Z,22.49
2022-10-14T09:12:16.737Z,22.51
2022-10-14T09:14:46.210Z,22.49
2022-10-14T09:17:24.105Z,22.43
2022-10-14T09:19:52.200Z,22.32
2022-10-14T09:22:18.954Z,22.30
2022-10-14T09:24:48.201Z,22.29
2022-10-14T09:27:18.568Z,22.26
2022-10-14T09:30:00.597Z,22.26
2022-10-14T09:32:33.457Z,22.26
2022-10-14T09:34:59.946Z,22.29
2022-10-14T09:37:33.961Z,22.29
2022-10-14T09:40:09.161Z,22.28
2022-10-14T09:43:12.696Z,22.23
2022-10-14T09:45:58.696Z,22.33
2022-10-14T09:48:44.673Z,22.37
2022-10-14T09:51:22.020Z,22.40
2022-10-14T09:53:51.904Z,22.43
2022-10-14T09:56:30.615Z,22.42
2022-10-14T09:58:57.432Z,22.43
2022-10-14T10:01:33.014Z,22.41
2022-10-14T10:04:05.552Z,22.42
2022-10-14T10:06:32.283Z,22.48
2022-10-14T10:08:59.993Z,22.52
2022-10-14T10:11:28.360Z,22.49
2022-10-14T10:13:54.895Z,22.53
2022-10-14T10:16:31.349Z,22.54
2022-10-14T10:18:58.087Z,22.54
2022-10-14T10:21:26.352Z,22.56
2022-10-14T10:23:58.002Z,22.60
2022-10-14T10:26:33.642Z,22.63
2022-10-14T10:29:02.813Z,22.65
2022-10-14T10:31:52.402Z,22.68
2022-10-14T10:34:44.353Z,22.73
2022-10-14T10:37:26.210Z,22.74
2022-10-14T10:40:07.799Z,22.55
2022-10-14T10:42:43.998Z,22.49
2022-10-14T10:45:21.096Z,22.48
2022-10-14T10:48:08.715Z,22.50
2022-10-14T10:50:37.875Z,22.51
2022-10-14T10:53:13.812Z,22.50
2022-10-14T10:55:58.762Z,22.48
2022-10-14T10:58:48.275Z,22.40
2022-10-14T11:01:31.766Z,22.38
2022-10-14T11:04:16.515Z,22.38
2022-10-14T11:07:24.043Z,22.43
2022-10-14T11:10:25.713Z,22.42
2022-10-14T11:13:06.250Z,22.42
2022-10-14T11:16:10.702Z,22.50
2022-10-14T11:19:09.760Z,22.52
2022-10-14T11:21:45.438Z,22.52
2022-10-14T11:24:33.610Z,22.53
2022-10-14T11:27:03.141Z,22.54
2022-10-14T11:29:39.312Z,22.55
2022-10-14T11:32:35.239Z,22.57
2022-10-14T11:35:43.891Z,22.62
2022-10-14T11:38:15.837Z,22.61
2022-10-14T11:40:54.523Z,22.63
2022-10-14T11:43:32.255Z,22.74
2022-10-14T11:46:22.928Z,23.00
2022-10-14T11:48:59.343Z,22.92
2022-10-14T11:51:41.931Z,23.13
2022-10-14T11:54:14.812Z,22.86
2022-10-14T11:56:50.707Z,22.77
2022-10-14T11:59:23.337Z,22.76
2022-10-14T12:01:52.037Z,22.77
2022-10-14T12:04:22.942Z,22.75
2022-10-14T12:06:53.069Z,22.74
2022-10-14T12:09:30.488Z,22.77
2022-10-14T12:11:58.051Z,22.78
2022-10-14T12:14:34.155Z,22.77
2022-10-14T12:17:04.134Z,22.77
2022-10-14T12:19:30.787Z,22.83
2022-10-14T12:22:12.946Z,22.92
2022-10-14T12:24:41.134Z,23.08
2022-10-14T12:27:10.481Z,22.92
2022-10-14T12:29:47.746Z,22.90
2022-10-14T12:32:23.682Z,22.95
2022-10-14T12:34:53.661Z,23.00
2022-10-14T12:37:31.614Z,23.01
2022-10-14T12:40:07.097Z,23.05
2022-10-14T12:42:44.025Z,23.06
2022-10-14T12:45:24.055Z,23.04
2022-10-14T12:48:02.756Z,23.05
2022-10-14T12:50:36.296Z,23.06
2022-10-14T12:53:06.196Z,23.04
2022-10-14T12:55:36.848Z,22.98
2022-10-14T12:58:04.435Z,22.92
2022-10-14T13:00:40.570Z,22.89
2022-10-14T13:03:17.922Z,22.88
2022-10-14T13:05:44.759Z,22.88
2022-10-14T13:08:20.336Z,22.87
2022-10-14T13:10:48.900Z,22.89
2022-10-14T13:13:42.408Z,22.83
2022-10-14T13:16:10.128Z,22.87
2022-10-14T13:18:42.662Z,22.87
2022-10-14T13:21:10.595Z,22.88
2022-10-14T13:23:38.269Z,22.90
2022-10-14T13:26:25.803Z,22.90
2022-10-14T13:29:04.926Z,22.92
2022-10-14T13:31:59.325Z,22.93
2022-10-14T13:34:51.672Z,22.91
2022-10-14T13:37:35.090Z,22.91
2022-10-14T13:40:21.926Z,22.90
2022-10-14T13:42:54.869Z,22.93
2022-10-14T13:45:22.357Z,22.90
2022-10-14T13:47:48.862Z,22.88
2022-10-14T13:50:21.127Z,22.82
2022-10-14T13:53:01.036Z,22.79
2022-10-14T13:55:28.437Z,22.80
2022-10-14T13:58:13.808Z,22.78
2022-10-14T14:00:57.847Z,22.78
2022-10-14T14:03:34.384Z,22.79
2022-10-14T14:06:02.028Z,22.81
2022-10-14T14:08:46.587Z,22.81
2022-10-14T14:11:19.747Z,22.80
2022-10-14T14:14:19.463Z,22.78
2022-10-14T14:16:59.060Z,22.78
2022-10-14T14:19:27.105Z,22.76
2022-10-14T14:22:19.852Z,22.75
2022-10-14T14:24:47.166Z,22.77
2022-10-14T14:27:21.456Z,22.79
2022-10-14T14:29:49.226Z,22.68
2022-10-14T14:32:22.838Z,22.60
2022-10-14T14:34:50.040Z,22.66
2022-10-14T14:37:47.755Z,22.60
2022-10-14T14:40:25.128Z,22.58
2022-10-14T14:42:53.271Z,22.54
2022-10-14T14:45:35.282Z,22.51
2022-10-14T14:48:02.708Z,22.46
2022-10-14T14:50:43.327Z,22.50
2022-10-14T14:53:29.998Z,22.51
2022-10-14T14:55:56.340Z,22.46
2022-10-14T14:58:24.327Z,22.42
2022-10-14T15:00:52.827Z,22.42
2022-10-14T15:03:19.298Z,22.41
2022-10-14T15:05:50.684Z,22.39
2022-10-14T15:08:21.501Z,22.36
2022-10-14T15:10:48.303Z,22.34
2022-10-14T15:13:42.517Z,22.30
2022-10-14T15:16:08.981Z,22.26
2022-10-14T15:18:42.547Z,22.24
2022-10-14T15:21:13.094Z,22.23
2022-10-14T15:24:00.209Z,22.26
2022-10-14T15:26:34.608Z,22.27
2022-10-14T15:32:10.002Z,22.19
2022-10-14T15:34:37.288Z,22.18
2022-10-14T15:37:03.770Z,22.20
2022-10-14T15:39:30.273Z,22.19
2022-10-14T15:41:56.752Z,22.17
2022-10-14T15:44:23.223Z,22.15
2022-10-14T15:47:08.158Z,22.15
2022-10-14T15:49:37.745Z,22.09
2022-10-14T15:52:04.779Z,22.11
2022-10-14T15:54:31.249Z,22.07
2022-10-14T15:56:57.908Z,22.10
2022-10-14T15:59:24.525Z,22.08
2022-10-14T16:01:51.211Z,22.15
2022-10-14T16:04:19.613Z,22.07
2022-10-14T16:06:46.335Z,22.09
2022-10-14T16:09:13.224Z,22.10
2022-10-14T16:11:39.704Z,22.09
2022-10-14T16:14:08.149Z,22.09
2022-10-14T16:16:36.723Z,22.08
2022-10-14T16:19:03.833Z,22.12
2022-10-14T16:21:30.556Z,22.10
2022-10-14T16:23:58.895Z,22.10
2022-10-14T16:26:25.633Z,22.15
2022-10-14T16:28:53.283Z,22.22
2022-10-14T16:31:21.284Z,22.32
2022-10-14T16:33:51.265Z,22.38
2022-10-14T16:36:17.871Z,22.46
2022-10-14T16:38:44.347Z,22.43
2022-10-14T16:41:11.198Z,22.48
2022-10-14T16:43:37.664Z,22.49
2022-10-14T16:46:04.528Z,22.50
2022-10-14T16:48:32.099Z,22.44
2022-10-14T16:50:58.679Z,22.42
2022-10-14T16:53:40.451Z,22.44
2022-10-14T16:56:35.242Z,22.45
2022-10-14T16:59:03.823Z,22.49
2022-10-14T17:01:30.548Z,22.42
2022-10-14T17:03:57.479Z,22.37
2022-10-14T17:06:24.659Z,22.38
2022-10-14T17:08:51.335Z,22.42
2022-10-14T17:11:17.980Z,22.43
2022-10-14T17:13:44.489Z,22.44
2022-10-14T17:16:10.999Z,22.44
2022-10-14T17:18:37.500Z,22.42
2022-10-14T17:21:09.001Z,22.43
2022-10-14T17:23:36.812Z,22.44
2022-10-14T17:26:04.131Z,22.42
2022-10-14T17:28:30.636Z,22.47
2022-10-14T17:30:57.563Z,22.51
2022-10-14T17:33:26.005Z,22.67
2022-10-14T17:35:59.297Z,22.77
2022-10-14T17:38:26.451Z,22.87
2022-10-14T17:40:53.223Z,22.93
2022-10-14T17:43:20.454Z,22.94
2022-10-14T17:45:46.909Z,23.03
2022-10-14T17:48:13.380Z,23.02
2022-10-14T17:50:39.910Z,23.02
2022-10-14T17:53:06.364Z,23.05
2022-10-14T17:55:35.549Z,23.14
2022-10-14T17:58:02.035Z,23.09
2022-10-14T18:00:28.644Z,23.10
2022-10-14T18:02:55.160Z,23.19
2022-10-14T18:05:21.642Z,23.25
2022-10-14T18:07:48.092Z,23.32
2022-10-14T18:10:16.122Z,23.35
2022-10-14T18:12:42.583Z,23.38
2022-10-14T18:15:09.758Z,23.36
2022-10-14T18:17:36.536Z,23.31
2022-10-14T18:20:06.491Z,23.31
2022-10-14T18:22:32.973Z,23.18
2022-10-14T18:24:59.466Z,23.15
2022-10-14T18:27:26.124Z,23.08
2022-10-14T18:29:52.619Z,23.10
2022-10-14T18:32:19.515Z,23.16
2022-10-14T18:34:46.055Z,23.17
2022-10-14T18:37:12.519Z,23.21
2022-10-14T18:39:39.256Z,23.21
2022-10-14T18:42:05.732Z,23.23
2022-10-14T18:44:32.199Z,23.20
2022-10-14T18:46:58.667Z,23.22
2022-10-14T18:49:25.129Z,23.34
2022-10-14T18:51:53.120Z,23.49
2022-10-14T18:54:20.307Z,23.64
2022-10-14T18:56:48.199Z,23.71
2022-10-14T18:59:17.758Z,23.67
2022-10-14T19:01:44.403Z,23.68
2022-10-14T19:04:14.963Z,23.76
2022-10-14T19:06:42.507Z,23.80
2022-10-14T19:09:14.842Z,23.84
2022-10-14T19:11:41.548Z,23.88
2022-10-14T19:14:08.258Z,23.91
2022-10-14T19:16:36.880Z,23.94
2022-10-14T19:19:10.148Z,23.89
2022-10-14T19:21:40.136Z,23.92
2022-10-14T19:24:08.160Z,23.94
2022-10-14T19:26:35.557Z,23.96
2022-10-14T19:29:04.280Z,23.95
2022-10-14T19:31:34.276Z,23.94
2022-10-14T19:34:01.666Z,23.93
2022-10-14T19:36:28.207Z,23.87
2022-10-14T19:38:58.411Z,23.84
2022-10-14T19:41:25.709Z,23.84
2022-10-14T19:43:53.620Z,23.83
2022-10-14T19:46:20.789Z,23.81
2022-10-14T19:48:47.246Z,23.75
2022-10-14T19:51:14.098Z,23.68
2022-10-14T19:53:40.603Z,23.59
2022-10-14T19:56:08.688Z,23.68
2022-10-14T19:58:37.656Z,23.70
2022-10-14T20:01:13.643Z,23.64
2022-10-14T20:03:40.629Z,23.65
2022-10-14T20:06:07.385Z,23.59
2022-10-14T20:08:33.875Z,23.54
2022-10-14T20:11:04.410Z,23.46
2022-10-14T20:13:30.866Z,23.49
2022-10-14T20:16:00.999Z,23.57
2022-10-14T20:18:32.338Z,23.53
2022-10-14T20:21:03.706Z,23.57
2022-10-14T20:23:31.149Z,23.59
2022-10-14T20:26:05.284Z,23.60
2022-10-14T20:28:31.810Z,23.59
2022-10-14T20:30:58.315Z,23.59
2022-10-14T20:33:24.762Z,23.57
2022-10-14T20:36:03.931Z,23.44
2022-10-14T20:38:30.468Z,23.44
2022-10-14T20:41:03.520Z,23.42
2022-10-14T20:43:29.984Z,23.46
2022-10-14T20:45:56.517Z,23.49
2022-10-14T20:48:23.059Z,23.54
2022-10-14T20:50:49.596Z,23.55
2022-10-14T20:53:16.060Z,23.67
2022-10-14T20:55:42.515Z,23.84
2022-10-14T20:58:09.325Z,23.95
2022-10-14T21:00:36.141Z,24.02
2022-10-14T21:03:02.688Z,24.03
2022-10-14T21:05:29.151Z,24.03
2022-10-14T21:07:55.628Z,24.06
2022-10-14T21:10:22.151Z,24.10
2022-10-14T21:12:49.653Z,24.08
2022-10-14T21:15:16.190Z,24.10
2022-10-14T21:17:47.867Z,24.07
2022-10-14T21:20:15.538Z,24.08
2022-10-14T21:22:42.145Z,24.09
2022-10-14T21:25:09.925Z,24.08
2022-10-14T21:27:36.775Z,23.94
2022-10-14T21:30:03.667Z,23.75
2022-10-14T21:32:30.153Z,23.63
2022-10-14T21:34:56.601Z,23.57
2022-10-14T21:37:23.596Z,23.56
2022-10-14T21:39:50.060Z,23.52
2022-10-14T21:42:16.569Z,23.52
2022-10-14T21:44:43.018Z,23.52
2022-10-14T21:47:09.591Z,23.54
2022-10-14T21:49:36.061Z,23.42
2022-10-14T21:52:02.566Z,23.40
2022-10-14T21:54:29.032Z,23.39
2022-10-14T21:59:22.909Z,23.34
2022-10-14T22:01:49.728Z,23.33
2022-10-14T22:04:16.190Z,23.30
2022-10-14T22:06:42.639Z,23.28
2022-10-14T22:09:09.111Z,23.25
2022-10-14T22:11:39.911Z,23.24
2022-10-14T22:14:10.528Z,23.20
2022-10-14T22:16:36.988Z,23.18
2022-10-14T22:19:04.558Z,23.17
2022-10-14T22:21:32.159Z,23.17
2022-10-14T22:23:58.863Z,23.15
2022-10-14T22:26:25.793Z,23.12
2022-10-14T22:29:05.761Z,23.11
2022-10-14T22:31:35.274Z,23.12
2022-10-14T22:34:03.200Z,23.12
2022-10-14T22:36:29.814Z,23.13
2022-10-14T22:38:56.955Z,23.18
2022-10-14T22:41:23.774Z,23.19
2022-10-14T22:43:54.774Z,23.19
2022-10-14T22:46:23.471Z,23.18
2022-10-14T22:48:50.443Z,23.17
2022-10-14T22:51:18.809Z,23.14
2022-10-14T22:53:45.824Z,23.12
2022-10-14T22:56:14.142Z,23.09
2022-10-14T22:58:40.639Z,23.07
2022-10-14T23:01:11.062Z,23.09
2022-10-14T23:03:37.639Z,23.17
2022-10-14T23:06:05.872Z,23.23
2022-10-14T23:08:32.775Z,23.26
2022-10-14T23:10:59.571Z,23.29
2022-10-14T23:13:26.127Z,23.33
2022-10-14T23:15:56.188Z,23.35
2022-10-14T23:18:23.738Z,23.37
2022-10-14T23:20:50.272Z,23.36
2022-10-14T23:23:16.807Z,23.34
2022-10-14T23:25:43.584Z,23.32
2022-10-14T23:28:10.083Z,23.33
2022-10-14T23:30:36.903Z,23.35
2022-10-14T23:33:03.461Z,23.33
2022-10-14T23:35:30.244Z,23.32
2022-10-14T23:37:56.722Z,23.30
2022-10-14T23:40:23.185Z,23.29
2022-10-14T23:50:09.190Z,23.26
2022-10-14T23:52:35.663Z,23.26
2022-10-14T23:55:03.161Z,23.25
2022-10-14T23:57:29.636Z,23.22
2022-10-14T23:59:56.096Z,23.21
